Time;durP1;ratioP1;P1;durP2;ratioP2;P2;SDS_P1;SDS_P2;PMS_P1;PMS_P2;Temp;Humidity;BMP_temperature;BMP_pressure;BME280_temperature;BME280_humidity;BME280_pressure;Samples;Min_cycle;Max_cycle;Signal;HPM_P1;HPM_P2
2023/01/10 00:00:24;;;;;;;6.85;2.97;;;5.90;99.90;;;;;;5074304;28;20025;-82
2023/01/10 00:02:51;;;;;;;7.38;2.78;;;5.90;99.90;;;;;;5064715;28;20025;-82
2023/01/10 00:05:17;;;;;;;6.10;2.33;;;5.90;99.90;;;;;;5064979;28;20025;-81
2023/01/10 00:07:43;;;;;;;6.15;2.72;;;5.90;99.90;;;;;;5065799;28;20405;-82
2023/01/10 00:10:09;;;;;;;10.25;2.90;;;5.90;99.90;;;;;;5068465;28;20040;-84
2023/01/10 00:15:20;;;;;;;6.18;2.40;;;5.90;99.90;;;;;;5072008;28;20117;-82
2023/01/10 00:17:45;;;;;;;10.95;4.30;;;5.90;99.90;;;;;;5062820;28;20029;-83
2023/01/10 00:20:11;;;;;;;7.43;2.67;;;5.90;99.90;;;;;;5081096;28;20032;-82
2023/01/10 00:22:37;;;;;;;5.22;3.20;;;5.90;99.90;;;;;;5075511;28;20048;-82
2023/01/10 00:25:03;;;;;;;3.65;2.22;;;5.90;99.90;;;;;;5076456;28;20024;-82
2023/01/10 00:27:28;;;;;;;7.25;2.35;;;5.90;99.90;;;;;;5073349;28;20052;-83
2023/01/10 00:29:55;;;;;;;9.30;2.50;;;5.90;99.90;;;;;;5072770;28;20036;-82
2023/01/10 00:32:21;;;;;;;8.93;2.38;;;5.90;99.90;;;;;;5069166;28;20029;-83
2023/01/10 00:34:47;;;;;;;10.77;4.80;;;5.90;99.90;;;;;;5074203;28;20368;-82
2023/01/10 00:37:13;;;;;;;5.00;2.40;;;5.90;99.90;;;;;;5069622;28;20309;-81
2023/01/10 00:39:39;;;;;;;20.50;2.60;;;5.90;99.90;;;;;;5075343;28;20473;-81
2023/01/10 00:44:50;;;;;;;3.55;2.10;;;5.80;99.90;;;;;;5071223;28;20043;-82
2023/01/10 00:47:17;;;;;;;5.95;2.40;;;5.70;99.90;;;;;;5073022;28;20029;-81
2023/01/10 00:49:43;;;;;;;5.82;1.88;;;5.70;99.90;;;;;;5068226;28;20033;-81
2023/01/10 00:52:08;;;;;;;4.53;2.00;;;5.70;99.90;;;;;;5074043;28;20024;-81
2023/01/10 00:54:34;;;;;;;15.32;2.78;;;5.60;99.90;;;;;;5069604;28;20536;-81
2023/01/10 00:56:59;;;;;;;14.30;2.75;;;5.60;99.90;;;;;;5068225;28;20366;-81
2023/01/10 00:59:28;;;;;;;10.77;3.00;;;5.50;99.90;;;;;;5066879;28;20392;-82
2023/01/10 01:01:54;;;;;;;11.98;3.30;;;5.50;99.90;;;;;;5073698;28;20040;-83
2023/01/10 01:04:20;;;;;;;9.75;2.75;;;5.60;99.90;;;;;;5082975;28;20036;-83
2023/01/10 01:06:46;;;;;;;16.25;3.28;;;5.70;99.90;;;;;;5071878;28;20036;-81
2023/01/10 01:09:13;;;;;;;7.88;2.75;;;5.70;99.90;;;;;;5071642;28;20044;-83
2023/01/10 01:11:39;;;;;;;16.55;2.78;;;5.70;99.90;;;;;;5070503;28;20504;-82
2023/01/10 01:14:04;;;;;;;5.85;2.25;;;5.70;99.90;;;;;;5072889;28;20024;-84
2023/01/10 01:16:30;;;;;;;12.27;2.58;;;5.70;99.90;;;;;;5069416;28;20024;-82
2023/01/10 01:18:56;;;;;;;5.22;2.85;;;5.70;99.90;;;;;;5069192;28;20028;-81
2023/01/10 01:21:27;;;;;;;8.68;2.63;;;5.70;99.90;;;;;;5070832;28;20034;-84
2023/01/10 01:23:55;;;;;;;10.57;2.63;;;5.70;99.90;;;;;;5066005;28;20507;-82
2023/01/10 01:26:22;;;;;;;10.23;2.50;;;5.60;99.90;;;;;;5071646;28;20020;-83
2023/01/10 01:28:47;;;;;;;13.15;2.70;;;5.70;99.90;;;;;;5070586;28;20044;-83
2023/01/10 01:31:13;;;;;;;17.83;3.97;;;5.70;99.90;;;;;;5067477;28;20059;-81
2023/01/10 01:33:38;;;;;;;9.80;3.08;;;5.70;99.90;;;;;;5064172;28;20028;-81
2023/01/10 01:36:08;;;;;;;6.35;2.60;;;5.70;99.90;;;;;;5068329;28;20044;-84
2023/01/10 01:38:35;;;;;;;6.85;2.60;;;5.60;99.90;;;;;;5068669;28;20559;-82
2023/01/10 01:41:01;;;;;;;11.77;2.90;;;5.70;99.90;;;;;;5071597;28;20020;-82
2023/01/10 01:43:28;;;;;;;16.58;3.22;;;5.60;99.90;;;;;;5069581;28;20033;-81
2023/01/10 01:45:58;;;;;;;8.13;2.70;;;5.70;99.90;;;;;;5069728;28;20524;-81
2023/01/10 01:48:40;;;;;;;7.35;2.90;;;5.70;99.90;;;;;;5069683;28;20115;-81
2023/01/10 01:51:08;;;;;;;8.93;2.75;;;5.70;99.90;;;;;;5068641;28;20047;-82
2023/01/10 01:53:43;;;;;;;8.43;4.00;;;5.70;99.90;;;;;;5065043;28;20025;-82
2023/01/10 01:56:23;;;;;;;8.50;3.08;;;5.70;99.90;;;;;;5073461;28;20365;-82
2023/01/10 01:59:07;;;;;;;14.70;3.30;;;5.70;99.90;;;;;;5070671;28;20098;-83
2023/01/10 02:01:34;;;;;;;11.25;3.28;;;5.70;99.90;;;;;;5062720;28;20032;-82
2023/01/10 02:04:13;;;;;;;9.75;3.03;;;5.70;99.90;;;;;;5072492;28;20044;-82
2023/01/10 02:06:39;;;;;;;8.15;2.97;;;5.70;99.90;;;;;;5069164;28;20024;-82
2023/01/10 02:09:15;;;;;;;11.60;3.42;;;5.70;99.90;;;;;;5067187;28;20040;-82
2023/01/10 02:11:40;;;;;;;;;;;5.80;99.90;;;;;;5068392;28;20028;-82
2023/01/10 02:14:07;;;;;;;16.00;3.20;;;5.80;99.90;;;;;;5068259;28;20888;-82
2023/01/10 02:16:33;;;;;;;6.95;2.90;;;5.80;99.90;;;;;;5065707;28;20036;-82
2023/01/10 02:18:59;;;;;;;12.13;3.97;;;5.80;99.90;;;;;;5066988;28;20090;-82
2023/01/10 02:22:12;;;;;;;8.18;3.33;;;5.80;99.90;;;;;;5072589;28;20028;-81
2023/01/10 02:25:21;;;;;;;10.57;3.50;;;5.80;99.90;;;;;;5015356;28;20094;-82
2023/01/10 02:28:00;;;;;;;5.93;2.45;;;5.90;99.90;;;;;;5035858;28;20042;-82
2023/01/10 02:30:50;;;;;;;11.18;3.40;;;5.80;99.90;;;;;;5063254;28;20048;-83
2023/01/10 02:33:26;;;;;;;7.30;3.20;;;5.80;99.90;;;;;;5072563;28;20373;-81
2023/01/10 02:35:53;;;;;;;;;;;5.90;99.90;;;;;;5069302;28;20468;-82
2023/01/10 02:38:31;;;;;;;6.32;2.88;;;5.90;99.90;;;;;;5073787;28;20007;-82
2023/01/10 02:41:32;;;;;;;14.70;3.55;;;5.90;99.90;;;;;;5066468;28;20047;-82
2023/01/10 02:44:16;;;;;;;8.25;3.28;;;5.90;99.90;;;;;;5047838;28;20025;-81
2023/01/10 02:46:44;;;;;;;6.97;3.03;;;5.90;99.90;;;;;;5055884;28;20037;-82
2023/01/10 02:49:11;;;;;;;10.45;3.00;;;5.90;99.90;;;;;;5069071;28;20044;-82
2023/01/10 02:51:36;;;;;;;7.50;2.63;;;5.90;99.90;;;;;;5066320;28;20040;-83
2023/01/10 02:54:07;;;;;;;12.57;4.15;;;5.90;99.90;;;;;;5066476;28;20035;-82
2023/01/10 02:56:54;;;;;;;6.22;2.85;;;5.90;99.90;;;;;;5059680;28;20013;-82
2023/01/10 02:59:31;;;;;;;8.43;2.95;;;5.90;99.90;;;;;;5067277;28;20032;-81
2023/01/10 03:02:20;;;;;;;8.88;2.67;;;5.90;99.90;;;;;;5068352;28;20100;-84
2023/01/10 03:04:49;;;;;;;9.45;2.67;;;5.90;99.90;;;;;;5069607;28;20040;-83
2023/01/10 03:07:33;;;;;;;9.15;3.47;;;6.00;99.90;;;;;;5069432;28;20028;-82
2023/01/10 03:10:13;;;;;;;5.50;2.70;;;6.00;99.90;;;;;;5067206;28;20037;-82
2023/01/10 03:12:43;;;;;;;3.70;2.85;;;6.00;99.90;;;;;;5065604;28;20036;-83
2023/01/10 03:15:13;;;;;;;8.10;2.60;;;6.00;99.90;;;;;;5066544;28;21346;-82
2023/01/10 03:17:40;;;;;;;6.32;2.80;;;6.00;99.90;;;;;;5065444;28;20028;-82
2023/01/10 03:20:07;;;;;;;6.38;2.92;;;6.00;99.90;;;;;;5067257;28;20044;-81
2023/01/10 03:22:36;;;;;;;6.30;2.95;;;6.00;99.90;;;;;;5067192;28;20103;-83
2023/01/10 03:25:05;;;;;;;5.25;2.80;;;6.00;99.90;;;;;;5067756;28;20048;-82
2023/01/10 03:28:01;;;;;;;6.07;2.70;;;5.90;99.90;;;;;;5066616;28;20052;-81
2023/01/10 03:30:40;;;;;;;2.88;2.40;;;5.90;99.90;;;;;;5062012;28;20038;-82
2023/01/10 03:33:06;;;;;;;8.30;2.88;;;5.90;99.90;;;;;;5067577;28;20037;-83
2023/01/10 03:35:56;;;;;;;6.05;3.22;;;5.90;99.90;;;;;;5068547;28;20076;-82
2023/01/10 03:38:31;;;;;;;7.40;3.03;;;5.90;99.90;;;;;;5067459;28;20029;-82
2023/01/10 03:41:10;;;;;;;8.75;3.42;;;5.80;99.90;;;;;;5065720;28;20465;-81
2023/01/10 03:46:41;;;;;;;4.30;2.90;;;5.90;99.90;;;;;;5068718;28;20086;-82
2023/01/10 03:49:09;;;;;;;6.13;3.15;;;5.90;99.90;;;;;;5061765;28;20036;-82
2023/01/10 03:51:38;;;;;;;7.88;2.88;;;5.80;99.90;;;;;;5067255;28;20544;-82
2023/01/10 03:54:04;;;;;;;9.05;3.28;;;5.80;99.90;;;;;;5063958;28;20029;-82
2023/01/10 03:56:29;;;;;;;3.83;2.55;;;5.80;99.90;;;;;;5068017;28;20025;-82
2023/01/10 03:58:56;;;;;;;3.83;2.35;;;5.80;99.90;;;;;;5070471;28;20036;-81
2023/01/10 04:01:22;;;;;;;5.40;2.88;;;5.70;99.90;;;;;;5070381;28;20151;-81
2023/01/10 04:03:47;;;;;;;3.20;2.42;;;5.70;99.90;;;;;;5071356;28;20040;-82
2023/01/10 04:06:13;;;;;;;6.03;2.70;;;5.60;99.90;;;;;;5070165;28;20031;-82
2023/01/10 04:08:38;;;;;;;6.00;2.55;;;5.50;99.90;;;;;;5070965;28;20036;-82
2023/01/10 04:11:04;;;;;;;5.95;2.70;;;5.50;99.90;;;;;;5069657;28;20032;-81
2023/01/10 04:13:30;;;;;;;5.20;2.63;;;5.50;99.90;;;;;;5069884;28;20400;-81
2023/01/10 04:15:58;;;;;;;4.82;2.85;;;5.50;99.90;;;;;;5071215;28;20052;-82
2023/01/10 04:18:23;;;;;;;5.00;2.13;;;5.50;99.90;;;;;;5070616;28;20162;-83
2023/01/10 04:20:49;;;;;;;2.60;2.00;;;5.50;99.90;;;;;;5071253;28;20120;-83
2023/01/10 04:23:14;;;;;;;3.47;2.08;;;5.50;99.90;;;;;;5070722;28;20483;-82
2023/01/10 04:25:40;;;;;;;6.38;2.25;;;5.50;99.90;;;;;;5068403;28;20028;-82
2023/01/10 04:28:05;;;;;;;5.97;2.63;;;5.50;99.90;;;;;;5071256;28;20052;-81
2023/01/10 04:30:31;;;;;;;4.53;2.20;;;5.50;99.90;;;;;;5069087;28;20040;-83
2023/01/10 04:32:56;;;;;;;5.25;2.10;;;5.50;99.90;;;;;;5071092;28;20029;-82
2023/01/10 04:35:22;;;;;;;3.83;1.80;;;5.60;99.90;;;;;;5071303;28;20024;-83
2023/01/10 04:37:47;;;;;;;5.85;2.22;;;5.50;99.90;;;;;;5070714;28;20063;-82
2023/01/10 04:40:15;;;;;;;4.20;2.35;;;5.50;99.90;;;;;;5065394;28;20136;-82
2023/01/10 04:42:41;;;;;;;9.73;2.28;;;5.50;99.90;;;;;;5069340;28;20029;-83
2023/01/10 04:45:10;;;;;;;5.40;2.35;;;5.50;99.90;;;;;;5073028;28;20469;-82
2023/01/10 04:47:36;;;;;;;4.47;1.85;;;5.50;99.90;;;;;;5068763;28;20067;-83
2023/01/10 04:50:04;;;;;;;5.95;1.80;;;5.50;99.90;;;;;;5076905;28;20059;-83
2023/01/10 04:52:30;;;;;;;4.18;1.98;;;5.50;99.90;;;;;;5070385;28;20036;-83
2023/01/10 04:54:56;;;;;;;9.10;2.05;;;5.50;99.90;;;;;;5073771;28;20027;-82
2023/01/10 04:57:21;;;;;;;9.05;2.38;;;5.50;99.90;;;;;;5071361;28;20074;-82
2023/01/10 04:59:47;;;;;;;6.68;2.13;;;5.50;99.90;;;;;;5066637;28;20435;-83
2023/01/10 05:02:12;;;;;;;9.18;2.25;;;5.50;99.90;;;;;;5064928;28;20428;-83
2023/01/10 05:04:38;;;;;;;11.57;2.05;;;5.60;99.90;;;;;;5070967;28;20115;-82
2023/01/10 05:07:03;;;;;;;8.32;1.88;;;5.60;99.90;;;;;;5066876;28;20713;-83
2023/01/10 05:09:29;;;;;;;5.80;2.20;;;5.60;99.90;;;;;;5067048;28;20726;-82
2023/01/10 05:11:54;;;;;;;8.38;1.85;;;5.60;99.90;;;;;;5074997;28;20025;-82
2023/01/10 05:14:22;;;;;;;7.22;2.10;;;5.60;99.90;;;;;;5073798;28;20029;-82
2023/01/10 05:16:47;;;;;;;8.65;1.70;;;5.60;99.90;;;;;;5063423;28;20035;-82
2023/01/10 05:19:13;;;;;;;6.25;1.88;;;5.60;99.90;;;;;;5066992;28;20036;-82
2023/01/10 05:21:38;;;;;;;6.05;2.00;;;5.60;99.90;;;;;;5066020;28;20025;-82
2023/01/10 05:24:04;;;;;;;6.22;1.80;;;5.60;99.90;;;;;;5072940;28;20119;-83
2023/01/10 05:26:30;;;;;;;8.40;1.92;;;5.60;99.90;;;;;;5064812;28;20024;-82
2023/01/10 05:28:58;;;;;;;3.80;1.50;;;5.60;99.90;;;;;;5067266;28;20048;-81
2023/01/10 05:31:24;;;;;;;5.70;1.80;;;5.60;99.90;;;;;;5067063;28;20024;-82
2023/01/10 05:33:50;;;;;;;4.07;1.67;;;5.60;99.90;;;;;;5066493;28;20028;-83
2023/01/10 05:36:17;;;;;;;6.15;1.23;;;5.60;99.90;;;;;;5069889;28;20033;-83
2023/01/10 05:38:43;;;;;;;3.33;1.40;;;5.60;99.90;;;;;;5067409;28;20599;-82
2023/01/10 05:41:08;;;;;;;7.63;1.20;;;5.60;99.90;;;;;;5065166;28;20029;-84
2023/01/10 05:43:34;;;;;;;7.10;1.40;;;5.60;99.90;;;;;;5066212;28;20489;-83
2023/01/10 05:46:00;;;;;;;7.65;1.45;;;5.60;99.90;;;;;;5070757;28;20097;-84
2023/01/10 05:48:26;;;;;;;3.40;1.33;;;5.60;99.90;;;;;;5067270;28;20033;-81
2023/01/10 05:50:52;;;;;;;2.15;0.98;;;5.50;99.90;;;;;;5069553;28;20549;-84
2023/01/10 05:53:18;;;;;;;5.03;1.40;;;5.50;99.90;;;;;;5068999;28;20036;-84
2023/01/10 05:56:09;;;;;;;4.45;2.10;;;5.60;99.90;;;;;;5065697;28;20024;-83
2023/01/10 05:58:35;;;;;;;10.40;3.40;;;5.50;99.90;;;;;;5075012;28;20392;-83
2023/01/10 06:01:00;;;;;;;8.82;2.97;;;5.50;99.90;;;;;;5072871;28;20029;-82
2023/01/10 06:03:26;;;;;;;9.63;1.58;;;5.50;99.90;;;;;;5073395;28;20020;-82
2023/01/10 06:05:53;;;;;;;8.95;2.50;;;5.50;99.90;;;;;;5069324;28;20043;-83
2023/01/10 06:08:20;;;;;;;15.02;1.90;;;5.50;99.90;;;;;;5069545;28;20029;-83
2023/01/10 06:10:45;;;;;;;12.02;2.08;;;5.50;99.90;;;;;;5072836;28;20043;-83
2023/01/10 06:13:11;;;;;;;8.15;2.15;;;5.50;99.90;;;;;;5070816;28;20047;-82
2023/01/10 06:15:37;;;;;;;8.77;1.92;;;5.60;99.90;;;;;;5071215;28;20066;-82
2023/01/10 06:18:03;;;;;;;12.68;2.17;;;5.60;99.90;;;;;;5071883;28;20058;-83
2023/01/10 06:20:28;;;;;;;9.85;2.33;;;5.60;99.90;;;;;;5069090;28;20115;-83
2023/01/10 06:22:54;;;;;;;23.00;5.70;;;5.70;99.90;;;;;;5068562;28;20128;-83
2023/01/10 06:25:22;;;;;;;9.68;2.25;;;5.70;99.90;;;;;;5074355;28;20049;-81
2023/01/10 06:27:47;;;;;;;14.25;2.78;;;5.80;99.90;;;;;;5068060;28;20044;-82
2023/01/10 06:30:13;;;;;;;7.28;2.42;;;5.80;99.90;;;;;;5068423;28;20293;-83
2023/01/10 06:32:39;;;;;;;14.68;2.75;;;5.80;99.90;;;;;;5071100;28;20052;-82
2023/01/10 06:35:05;;;;;;;11.43;3.13;;;5.90;99.90;;;;;;5075727;28;20055;-83
2023/01/10 06:37:32;;;;;;;8.70;2.78;;;5.90;99.90;;;;;;5068580;28;20365;-83
2023/01/10 06:39:57;;;;;;;14.57;3.10;;;5.90;99.90;;;;;;5068556;28;20055;-83
2023/01/10 06:42:23;;;;;;;15.10;3.53;;;5.90;99.90;;;;;;5071281;28;20051;-82
2023/01/10 06:44:49;;;;;;;15.63;3.13;;;5.90;99.90;;;;;;5068245;28;20035;-82
2023/01/10 06:47:14;;;;;;;24.65;4.75;;;5.90;99.90;;;;;;5066674;28;20028;-82
2023/01/10 06:49:40;;;;;;;12.85;2.33;;;5.80;99.90;;;;;;5070023;28;20032;-85
2023/01/10 06:52:05;;;;;;;10.50;3.00;;;5.80;99.90;;;;;;5069769;28;20016;-83
2023/01/10 06:54:31;;;;;;;17.38;3.65;;;5.80;99.90;;;;;;5077300;28;20043;-84
2023/01/10 06:56:56;;;;;;;14.85;3.13;;;5.80;99.90;;;;;;5068604;28;20528;-84
2023/01/10 06:59:22;;;;;;;28.55;3.25;;;5.80;99.90;;;;;;5066819;28;20122;-85
2023/01/10 07:01:48;;;;;;;16.48;2.95;;;5.90;99.90;;;;;;5083599;28;20388;-85
2023/01/10 07:04:13;;;;;;;14.80;3.17;;;5.80;99.90;;;;;;5067665;28;20025;-84
2023/01/10 07:06:40;;;;;;;8.25;3.35;;;5.90;99.90;;;;;;5070303;28;20032;-83
2023/01/10 07:09:06;;;;;;;18.52;3.20;;;5.90;99.90;;;;;;5067355;28;20041;-83
2023/01/10 07:11:33;;;;;;;24.30;3.40;;;5.90;99.90;;;;;;5071903;28;20025;-83
2023/01/10 07:14:00;;;;;;;20.63;3.38;;;5.90;99.90;;;;;;5071296;28;20446;-84
2023/01/10 07:16:26;;;;;;;21.63;3.75;;;5.90;99.90;;;;;;5070346;28;20033;-83
2023/01/10 07:18:51;;;;;;;20.55;3.80;;;5.90;99.90;;;;;;5066999;28;20117;-87
2023/01/10 07:21:18;;;;;;;21.67;2.97;;;5.80;99.90;;;;;;5072882;28;20034;-84
2023/01/10 07:23:49;;;;;;;16.20;2.78;;;5.90;99.90;;;;;;5069881;28;20033;-84
2023/01/10 07:26:17;;;;;;;17.00;2.70;;;5.90;99.90;;;;;;5068706;28;20082;-83
2023/01/10 07:28:44;;;;;;;16.80;3.20;;;5.90;99.90;;;;;;5065041;28;20489;-82
2023/01/10 07:31:12;;;;;;;17.25;3.03;;;5.80;99.90;;;;;;5072986;28;20036;-84
2023/01/10 07:33:37;;;;;;;13.20;3.85;;;5.80;99.90;;;;;;5066580;28;20028;-84
2023/01/10 07:36:03;;;;;;;17.08;3.33;;;5.70;99.90;;;;;;5069144;28;20032;-84
2023/01/10 07:38:29;;;;;;;41.88;12.85;;;5.70;99.90;;;;;;5067139;28;20024;-84
2023/01/10 07:40:55;;;;;;;21.75;5.15;;;5.70;99.90;;;;;;5076162;28;20020;-83
2023/01/10 07:43:20;;;;;;;13.55;3.55;;;5.70;99.90;;;;;;5076438;28;20032;-85
2023/01/10 07:45:46;;;;;;;21.35;3.67;;;5.70;99.90;;;;;;5066241;28;20028;-83
2023/01/10 07:48:12;;;;;;;14.77;3.67;;;5.80;99.90;;;;;;5070216;28;20024;-82
2023/01/10 07:50:38;;;;;;;11.02;3.40;;;5.80;99.90;;;;;;5061632;28;20071;-83
2023/01/10 07:53:05;;;;;;;20.88;3.38;;;5.70;99.90;;;;;;5069598;28;20113;-84
2023/01/10 07:55:33;;;;;;;27.77;4.30;;;5.70;99.90;;;;;;5064376;28;20052;-83
2023/01/10 07:57:59;;;;;;;10.07;2.40;;;5.70;99.90;;;;;;5067206;28;20025;-83
2023/01/10 08:00:26;;;;;;;10.68;2.63;;;5.70;99.90;;;;;;5070839;28;20131;-83
2023/01/10 08:02:53;;;;;;;11.25;2.97;;;5.70;99.90;;;;;;5078099;28;20089;-83
2023/01/10 08:05:19;;;;;;;16.08;3.13;;;5.80;99.90;;;;;;5077260;28;20381;-84
2023/01/10 08:07:45;;;;;;;13.43;3.08;;;5.70;99.90;;;;;;5078729;28;20365;-84
2023/01/10 08:10:10;;;;;;;14.27;4.03;;;5.70;99.90;;;;;;5067999;28;20105;-84
2023/01/10 08:12:39;;;;;;;30.25;4.53;;;5.70;99.90;;;;;;5071900;28;20037;-83
2023/01/10 08:15:05;;;;;;;15.40;4.30;;;5.70;99.90;;;;;;5067661;28;20032;-84
2023/01/10 08:17:34;;;;;;;23.42;4.28;;;5.80;99.90;;;;;;5074928;28;20027;-84
2023/01/10 08:20:00;;;;;;;15.48;3.10;;;5.90;99.90;;;;;;5079028;28;20079;-83
2023/01/10 08:22:26;;;;;;;17.60;4.32;;;5.90;99.90;;;;;;5077706;28;20372;-83
2023/01/10 08:24:52;;;;;;;21.90;4.07;;;5.90;99.90;;;;;;5066651;28;20107;-84
2023/01/10 08:27:18;;;;;;;21.13;3.97;;;5.90;99.90;;;;;;5067608;28;20048;-84
2023/01/10 08:29:43;;;;;;;16.63;3.28;;;5.90;99.90;;;;;;5067143;28;20471;-86
2023/01/10 08:32:09;;;;;;;13.68;3.05;;;6.00;99.90;;;;;;5067299;28;20052;-84
2023/01/10 08:34:35;;;;;;;8.25;3.20;;;5.90;99.90;;;;;;5078869;28;20033;-86
2023/01/10 08:37:02;;;;;;;12.93;3.50;;;6.00;99.90;;;;;;5067419;28;20039;-85
2023/01/10 08:39:29;;;;;;;8.93;3.17;;;6.00;99.90;;;;;;5067163;28;20031;-83
2023/01/10 08:41:56;;;;;;;12.95;3.05;;;5.90;99.90;;;;;;5069530;28;20067;-85
2023/01/10 08:44:21;;;;;;;17.83;4.43;;;6.00;99.90;;;;;;5072989;28;20015;-84
2023/01/10 08:46:48;;;;;;;20.67;4.47;;;6.10;99.90;;;;;;5073288;28;20033;-84
2023/01/10 08:49:14;;;;;;;23.85;5.53;;;6.10;99.90;;;;;;5074014;28;20520;-83
2023/01/10 08:51:39;;;;;;;24.80;5.65;;;6.10;99.90;;;;;;5073622;28;20040;-85
2023/01/10 08:54:05;;;;;;;18.23;3.97;;;6.10;99.90;;;;;;5075066;28;20043;-83
2023/01/10 08:56:30;;;;;;;10.90;3.15;;;6.10;99.90;;;;;;5074632;28;20098;-83
2023/01/10 08:58:56;;;;;;;19.95;2.97;;;6.10;99.90;;;;;;5070658;28;20009;-84
2023/01/10 09:01:22;;;;;;;14.27;3.83;;;6.10;99.90;;;;;;5070709;28;20115;-83
2023/01/10 09:03:48;;;;;;;12.18;4.10;;;6.10;99.90;;;;;;5070500;28;20416;-83
2023/01/10 09:06:14;;;;;;;20.30;5.00;;;6.10;99.90;;;;;;5068708;28;20078;-84
2023/01/10 09:08:39;;;;;;;24.27;4.22;;;6.10;99.90;;;;;;5072166;28;20393;-85
2023/01/10 09:11:05;;;;;;;17.98;4.25;;;6.10;99.90;;;;;;5076203;28;20048;-83
2023/01/10 09:13:31;;;;;;;26.23;4.03;;;6.20;99.90;;;;;;5076634;28;20044;-84
2023/01/10 09:15:58;;;;;;;22.92;4.07;;;6.20;99.90;;;;;;5076169;28;20653;-85
2023/01/10 09:18:24;;;;;;;15.60;4.38;;;6.20;99.90;;;;;;5072433;28;20036;-84
2023/01/10 09:20:51;;;;;;;14.68;4.50;;;6.20;99.90;;;;;;5076794;28;20536;-85
2023/01/10 09:23:19;;;;;;;27.05;5.88;;;6.20;99.90;;;;;;5073609;28;20107;-83
2023/01/10 09:25:45;;;;;;;17.60;4.05;;;6.20;99.90;;;;;;5073180;28;20040;-84
2023/01/10 09:28:12;;;;;;;13.93;3.67;;;6.20;99.90;;;;;;5074891;28;20053;-84
2023/01/10 09:30:37;;;;;;;19.33;4.38;;;6.20;99.90;;;;;;5072366;28;20039;-83
2023/01/10 09:33:04;;;;;;;28.70;4.38;;;6.20;99.90;;;;;;5075575;28;20028;-83
2023/01/10 09:35:30;;;;;;;20.40;5.57;;;6.20;99.90;;;;;;5078363;28;20035;-85
2023/01/10 09:37:59;;;;;;;15.80;4.18;;;6.20;99.90;;;;;;5078829;28;20039;-83
2023/01/10 09:41:00;;;;;;;21.77;4.93;;;6.20;99.90;;;;;;5069942;28;20032;-83
2023/01/10 09:43:34;;;;;;;20.20;4.40;;;6.20;99.90;;;;;;5067442;28;20074;-83
2023/01/10 09:46:18;;;;;;;23.50;4.32;;;6.20;99.90;;;;;;5069629;28;20025;-84
2023/01/10 09:48:55;;;;;;;22.90;3.70;;;6.30;99.90;;;;;;5064760;28;20493;-83
2023/01/10 09:51:40;;;;;;;13.95;4.10;;;6.30;99.90;;;;;;5081186;28;20484;-84
2023/01/10 09:54:13;;;;;;;21.55;4.40;;;6.30;99.90;;;;;;5080096;28;20083;-83
2023/01/10 09:56:39;;;;;;;22.33;4.60;;;6.40;99.90;;;;;;5058925;28;20078;-83
2023/01/10 09:59:09;;;;;;;18.50;4.43;;;6.40;99.90;;;;;;5067844;28;20029;-84
2023/01/10 10:01:35;;;;;;;24.00;4.25;;;6.40;99.90;;;;;;5078644;28;20481;-83
2023/01/10 10:04:25;;;;;;;26.65;4.38;;;6.40;99.90;;;;;;5062323;28;20430;-83
2023/01/10 10:06:52;;;;;;;26.63;4.53;;;6.40;99.90;;;;;;5064766;28;20035;-83
2023/01/10 10:09:27;;;;;;;21.40;4.07;;;6.50;99.90;;;;;;5071991;28;20058;-84
2023/01/10 10:12:24;;;;;;;24.35;4.75;;;6.40;99.90;;;;;;5069983;28;20044;-84
2023/01/10 10:15:22;;;;;;;35.15;5.20;;;6.50;99.90;;;;;;5071555;28;20380;-84
2023/01/10 10:18:09;;;;;;;21.25;4.63;;;6.60;99.90;;;;;;5073504;28;20029;-85
2023/01/10 10:20:51;;;;;;;24.73;4.53;;;6.60;99.90;;;;;;5065579;28;20024;-84
2023/01/10 10:23:40;;;;;;;14.35;4.07;;;6.60;99.90;;;;;;5068442;28;20457;-83
2023/01/10 10:26:30;;;;;;;13.90;4.22;;;6.60;99.90;;;;;;5072959;28;20056;-83
2023/01/10 10:29:20;;;;;;;34.25;6.18;;;6.70;99.90;;;;;;5063902;28;20047;-85
2023/01/10 10:32:13;;;;;;;17.33;5.97;;;6.60;99.90;;;;;;5076331;28;20122;-85
2023/01/10 10:34:47;;;;;;;16.25;3.40;;;6.60;99.90;;;;;;5069679;28;20607;-83
2023/01/10 10:37:51;;;;;;;11.38;3.22;;;6.50;99.90;;;;;;5068604;28;20028;-84
2023/01/10 10:40:21;;;;;;;13.02;3.38;;;6.50;99.90;;;;;;5048393;28;20037;-85
2023/01/10 10:42:53;;;;;;;10.05;3.10;;;6.50;99.90;;;;;;5060500;28;20025;-85
2023/01/10 10:45:21;;;;;;;15.82;3.92;;;6.60;99.90;;;;;;5068420;28;20031;-85
2023/01/10 10:47:59;;;;;;;8.13;2.50;;;6.60;99.90;;;;;;5067926;28;20024;-82
2023/01/10 10:50:31;;;;;;;12.05;3.80;;;6.60;99.90;;;;;;5071063;28;20566;-84
2023/01/10 10:53:01;;;;;;;9.57;2.03;;;6.60;99.90;;;;;;5073546;28;20029;-84
2023/01/10 10:55:32;;;;;;;11.80;2.47;;;6.50;99.90;;;;;;5072534;28;20035;-83
2023/01/10 10:57:57;;;;;;;12.48;2.92;;;6.60;99.90;;;;;;5072331;28;20036;-82
2023/01/10 11:00:24;;;;;;;14.57;3.28;;;6.60;99.90;;;;;;5067039;28;20055;-86
2023/01/10 11:03:04;;;;;;;10.57;2.67;;;6.60;99.90;;;;;;5069985;28;20043;-83
2023/01/10 11:05:50;;;;;;;17.95;3.35;;;6.60;99.90;;;;;;5077966;28;20082;-85
2023/01/10 11:08:16;;;;;;;;;;;6.60;99.90;;;;;;5065918;28;20105;-84
2023/01/10 11:10:49;;;;;;;17.73;3.60;;;6.70;99.90;;;;;;5068349;28;19916;-82
2023/01/10 11:13:26;;;;;;;14.20;2.97;;;6.60;99.90;;;;;;5063949;28;20032;-83
2023/01/10 11:15:52;;;;;;;9.93;2.70;;;6.60;99.90;;;;;;5073965;28;20101;-87
2023/01/10 11:18:22;;;;;;;20.77;3.45;;;6.50;99.90;;;;;;5067273;28;20040;-83
2023/01/10 11:20:50;;;;;;;12.57;2.88;;;6.50;99.90;;;;;;5068205;28;20503;-83
2023/01/10 11:23:35;;;;;;;10.25;3.10;;;6.50;99.90;;;;;;5062770;28;20111;-82
2023/01/10 11:26:01;;;;;;;12.32;2.72;;;6.50;99.90;;;;;;5064648;28;20029;-84
2023/01/10 11:28:31;;;;;;;15.90;2.67;;;6.50;99.90;;;;;;5067550;28;20041;-85
2023/01/10 11:30:58;;;;;;;24.73;3.78;;;6.50;99.90;;;;;;5067325;28;20044;-85
2023/01/10 11:33:30;;;;;;;16.65;3.17;;;6.60;99.90;;;;;;5065953;28;20039;-83
2023/01/10 11:36:02;;;;;;;16.05;3.17;;;6.50;99.90;;;;;;5067002;28;20035;-84
2023/01/10 11:38:28;;;;;;;10.65;2.33;;;6.60;99.90;;;;;;5067136;28;20028;-83
2023/01/10 11:41:03;;;;;;;11.52;2.80;;;6.60;99.90;;;;;;5069302;28;20060;-84
2023/01/10 11:43:40;;;;;;;21.92;4.35;;;6.70;99.90;;;;;;5065641;28;20025;-85
2023/01/10 11:46:21;;;;;;;19.27;3.15;;;6.70;99.90;;;;;;5068185;28;20070;-86
2023/01/10 11:49:18;;;;;;;8.77;3.05;;;6.70;99.90;;;;;;5070746;28;20109;-86
2023/01/10 11:51:55;;;;;;;;;;;6.70;99.90;;;;;;5070072;28;20045;-84
2023/01/10 11:54:27;;;;;;;12.90;2.70;;;6.80;99.90;;;;;;5067717;28;20227;-84
2023/01/10 11:56:57;;;;;;;13.82;2.70;;;6.80;99.90;;;;;;5067752;28;20021;-82
2023/01/10 11:59:23;;;;;;;15.55;2.75;;;6.80;99.90;;;;;;5067194;28;20021;-84
2023/01/10 12:02:00;;;;;;;12.73;2.67;;;6.90;99.90;;;;;;5079814;28;20480;-84
2023/01/10 12:04:29;;;;;;;17.95;2.75;;;6.80;99.90;;;;;;5072597;28;20120;-83
2023/01/10 12:07:01;;;;;;;10.93;2.97;;;6.90;99.90;;;;;;5074557;28;20021;-84
2023/01/10 12:09:54;;;;;;;22.33;3.42;;;6.90;99.90;;;;;;5064395;28;20037;-84
2023/01/10 12:12:25;;;;;;;20.13;7.22;;;6.90;99.90;;;;;;5069491;28;20283;-83
2023/01/10 12:14:55;;;;;;;11.55;3.03;;;6.90;99.90;;;;;;5067875;28;20388;-82
2023/01/10 12:17:25;;;;;;;6.70;3.22;;;6.90;99.90;;;;;;5073390;28;20067;-83
2023/01/10 12:19:59;;;;;;;20.67;7.10;;;6.90;99.90;;;;;;5074748;28;20119;-83
2023/01/10 12:22:28;;;;;;;23.98;5.85;;;6.90;99.90;;;;;;5074465;28;20028;-84
2023/01/10 12:24:55;;;;;;;17.08;3.58;;;7.00;99.90;;;;;;5071852;28;20040;-83
2023/01/10 12:27:24;;;;;;;14.85;3.35;;;6.90;99.90;;;;;;5072046;28;20040;-83
2023/01/10 12:30:05;;;;;;;10.43;3.40;;;6.90;99.90;;;;;;5069942;28;20052;-83
2023/01/10 12:32:38;;;;;;;12.82;3.42;;;6.90;99.90;;;;;;5067917;28;20035;-86
2023/01/10 12:35:10;;;;;;;12.48;3.53;;;6.80;99.90;;;;;;5069657;28;20127;-82
2023/01/10 12:38:12;;;;;;;12.85;3.72;;;6.80;99.90;;;;;;5070244;28;20077;-84
2023/01/10 12:40:48;;;;;;;17.20;4.72;;;6.70;99.90;;;;;;5053633;28;20044;-84
2023/01/10 12:46:27;;;;;;;14.25;4.18;;;6.70;99.90;;;;;;5072531;28;20094;-83
2023/01/10 12:49:02;;;;;;;21.25;6.68;;;6.70;99.90;;;;;;5065574;28;20085;-84
2023/01/10 12:51:29;;;;;;;24.00;4.53;;;6.70;99.90;;;;;;5064834;28;20047;-83
2023/01/10 12:54:04;;;;;;;19.15;3.90;;;6.70;99.90;;;;;;5070641;28;20044;-82
2023/01/10 12:56:31;;;;;;;23.42;5.53;;;6.80;99.90;;;;;;5069759;28;20485;-82
2023/01/10 12:59:02;;;;;;;14.70;4.10;;;6.80;99.90;;;;;;5072326;28;20035;-83
2023/01/10 13:01:41;;;;;;;19.73;8.02;;;6.80;99.90;;;;;;5071762;28;20477;-83
2023/01/10 13:04:14;;;;;;;41.53;13.25;;;6.80;99.90;;;;;;5068248;28;20024;-83
2023/01/10 13:06:42;;;;;;;15.68;5.00;;;6.80;99.90;;;;;;5067056;28;20098;-83
2023/01/10 13:09:12;;;;;;;20.48;4.97;;;6.80;99.90;;;;;;5067258;28;20420;-83
2023/01/10 13:12:06;;;;;;;22.55;4.47;;;6.80;99.90;;;;;;5074453;28;20035;-84
2023/01/10 13:14:55;;;;;;;18.67;4.07;;;6.90;99.90;;;;;;5067078;28;20049;-83
2023/01/10 13:17:54;;;;;;;27.58;5.80;;;6.90;99.90;;;;;;5076129;28;20758;-83
2023/01/10 13:20:23;;;;;;;22.27;4.57;;;6.80;99.90;;;;;;4997377;28;20122;-83